createdAt,value
2023-01-10T00:01:39.321Z,-8.66
2023-01-10T00:04:06.575Z,-8.55
2023-01-10T00:06:38.738Z,-8.49
2023-01-10T00:09:05.693Z,-8.42
2023-01-10T00:11:51.673Z,-8.49
2023-01-10T00:14:19.341Z,-8.47
2023-01-10T00:16:46.589Z,-8.50
2023-01-10T00:19:13.766Z,-8.52
2023-01-10T00:21:42.730Z,-8.42
2023-01-10T00:24:18.485Z,-8.43
2023-01-10T00:26:53.621Z,-8.46
2023-01-10T00:29:25.508Z,-8.60
2023-01-10T00:31:52.527Z,-8.62
2023-01-10T00:34:21.619Z,-8.66
2023-01-10T00:36:48.775Z,-8.66
2023-01-10T00:39:20.325Z,-8.67
2023-01-10T00:42:06.315Z,-8.67
2023-01-10T00:44:33.254Z,-8.67
2023-01-10T00:47:02.049Z,-8.68
2023-01-10T00:49:29.198Z,-8.67
2023-01-10T00:51:57.995Z,-8.69
2023-01-10T00:54:25.457Z,-8.68
2023-01-10T00:56:57.533Z,-8.65
2023-01-10T00:59:24.759Z,-8.62
2023-01-10T01:01:52.158Z,-8.55
2023-01-10T01:04:19.262Z,-8.49
2023-01-10T01:06:50.303Z,-8.50
2023-01-10T01:09:17.269Z,-8.48
2023-01-10T01:11:46.664Z,-8.51
2023-01-10T01:14:13.698Z,-8.51
2023-01-10T01:16:40.548Z,-8.53
2023-01-10T01:19:12.912Z,-8.47
2023-01-10T01:21:40.184Z,-8.39
2023-01-10T01:24:11.043Z,-8.29
2023-01-10T01:26:42.452Z,-8.35
2023-01-10T01:29:09.705Z,-8.36
2023-01-10T01:31:41.971Z,-8.33
2023-01-10T01:34:09.223Z,-8.34
2023-01-10T01:36:36.915Z,-8.22
2023-01-10T01:39:05.777Z,-8.09
2023-01-10T01:41:51.462Z,-8.02
2023-01-10T01:44:26.087Z,-8.05
2023-01-10T01:47:03.986Z,-8.08
2023-01-10T01:49:31.442Z,-8.05
2023-01-10T01:52:07.301Z,-8.11
2023-01-10T01:54:36.295Z,-8.15
2023-01-10T01:57:06.410Z,-8.17
2023-01-10T01:59:35.968Z,-8.20
2023-01-10T02:02:35.658Z,-8.24
2023-01-10T02:05:04.824Z,-8.28
2023-01-10T02:07:37.095Z,-8.20
2023-01-10T02:10:15.552Z,-8.25
2023-01-10T02:12:43.474Z,-8.25
2023-01-10T02:15:16.055Z,-8.26
2023-01-10T02:17:43.408Z,-8.28
2023-01-10T02:20:11.892Z,-8.35
2023-01-10T02:22:54.297Z,-8.36
2023-01-10T02:25:35.890Z,-8.44
2023-01-10T02:28:27.710Z,-8.46
2023-01-10T02:31:20.021Z,-8.37
2023-01-10T02:34:03.075Z,-8.24
2023-01-10T02:36:34.831Z,-8.34
2023-01-10T02:39:22.412Z,-8.32
2023-01-10T02:42:09.374Z,-8.37
2023-01-10T02:44:58.339Z,-8.42
2023-01-10T02:47:25.586Z,-8.49
2023-01-10T02:49:52.652Z,-8.53
2023-01-10T02:52:30.125Z,-8.50
2023-01-10T02:54:59.222Z,-8.55
2023-01-10T02:57:33.235Z,-8.64
2023-01-10T03:00:25.577Z,-8.73
2023-01-10T03:02:57.743Z,-8.76
2023-01-10T03:05:30.630Z,-8.81
2023-01-10T03:08:34.239Z,-8.95
2023-01-10T03:11:03.734Z,-9.03
2023-01-10T03:13:30.886Z,-9.05
2023-01-10T03:15:58.382Z,-8.98
2023-01-10T03:18:40.135Z,-8.95
2023-01-10T03:21:07.180Z,-8.99
2023-01-10T03:23:35.597Z,-9.01
2023-01-10T03:26:02.817Z,-9.03
2023-01-10T03:28:49.523Z,-9.05
2023-01-10T03:31:30.627Z,-8.96
2023-01-10T03:33:57.949Z,-8.98
2023-01-10T03:36:46.922Z,-8.96
2023-01-10T03:39:41.524Z,-8.96
2023-01-10T03:42:19.722Z,-8.92
2023-01-10T03:45:10.933Z,-8.91
2023-01-10T03:47:46.284Z,-9.02
2023-01-10T03:50:22.018Z,-9.04
2023-01-10T03:52:49.271Z,-8.94
2023-01-10T03:55:21.539Z,-8.94
2023-01-10T03:57:53.807Z,-8.99
2023-01-10T04:00:21.631Z,-8.99
2023-01-10T04:02:48.632Z,-8.98
2023-01-10T04:05:15.775Z,-9.01
2023-01-10T04:07:43.052Z,-9.00
2023-01-10T04:10:12.121Z,-8.99
2023-01-10T04:12:39.065Z,-9.01
2023-01-10T04:15:06.832Z,-9.03
2023-01-10T04:17:34.794Z,-9.05
2023-01-10T04:20:07.272Z,-8.97
2023-01-10T04:22:36.473Z,-8.93
2023-01-10T04:25:06.280Z,-8.81
2023-01-10T04:27:38.774Z,-8.76
2023-01-10T04:30:06.933Z,-8.71
2023-01-10T04:32:34.180Z,-8.65
2023-01-10T04:35:02.250Z,-8.45
2023-01-10T04:37:29.622Z,-8.38
2023-01-10T04:39:56.653Z,-8.36
2023-01-10T04:42:24.008Z,-8.28
2023-01-10T04:44:51.271Z,-8.27
2023-01-10T04:47:19.433Z,-8.15
2023-01-10T04:49:48.527Z,-8.07
2023-01-10T04:52:16.086Z,-8.04
2023-01-10T04:54:43.440Z,-8.06
2023-01-10T04:57:16.534Z,-8.03
2023-01-10T04:59:43.474Z,-8.02
2023-01-10T05:02:10.598Z,-7.98
2023-01-10T05:04:43.211Z,-7.95
2023-01-10T05:07:10.457Z,-8.00
2023-01-10T05:09:37.612Z,-7.98
2023-01-10T05:12:10.701Z,-7.84
2023-01-10T05:14:37.639Z,-7.70
2023-01-10T05:17:04.994Z,-7.70
2023-01-10T05:19:31.993Z,-7.78
2023-01-10T05:21:59.293Z,-7.82
2023-01-10T05:24:26.545Z,-7.82
2023-01-10T05:26:53.897Z,-7.83
2023-01-10T05:29:20.841Z,-7.86
2023-01-10T05:31:51.001Z,-7.88
2023-01-10T05:34:18.622Z,-8.00
2023-01-10T05:36:49.579Z,-8.04
2023-01-10T05:39:17.229Z,-7.99
2023-01-10T05:41:44.282Z,-8.00
2023-01-10T05:44:14.933Z,-7.93
2023-01-10T05:46:41.917Z,-7.84
2023-01-10T05:49:09.198Z,-7.79
2023-01-10T05:51:36.244Z,-7.74
2023-01-10T05:54:03.399Z,-7.80
2023-01-10T05:56:30.649Z,-7.80
2023-01-10T05:59:13.998Z,-7.73
2023-01-10T06:01:50.077Z,-7.62
2023-01-10T06:04:17.287Z,-7.74
2023-01-10T06:06:44.448Z,-7.72
2023-01-10T06:09:12.820Z,-7.63
2023-01-10T06:11:39.969Z,-7.62
2023-01-10T06:14:07.527Z,-7.64
2023-01-10T06:16:41.144Z,-7.68
2023-01-10T06:19:09.037Z,-7.59
2023-01-10T06:21:36.428Z,-7.54
2023-01-10T06:24:03.342Z,-7.54
2023-01-10T06:26:30.647Z,-7.49
2023-01-10T06:28:59.331Z,-7.38
2023-01-10T06:31:27.038Z,-7.35
2023-01-10T06:33:57.422Z,-7.31
2023-01-10T06:36:24.721Z,-7.31
2023-01-10T06:38:51.676Z,-7.18
2023-01-10T06:41:18.852Z,-7.09
2023-01-10T06:43:46.222Z,-6.95
2023-01-10T06:46:16.180Z,-6.91
2023-01-10T06:48:45.032Z,-6.82
2023-01-10T06:51:12.996Z,-6.75
2023-01-10T06:53:40.791Z,-6.68
2023-01-10T06:56:09.341Z,-6.64
2023-01-10T06:58:40.478Z,-6.72
2023-01-10T07:01:12.649Z,-6.82
2023-01-10T07:03:40.340Z,-6.78
2023-01-10T07:06:11.056Z,-6.63
2023-01-10T07:08:40.145Z,-6.52
2023-01-10T07:11:07.940Z,-6.42
2023-01-10T07:13:35.787Z,-6.27
2023-01-10T07:16:04.529Z,-6.16
2023-01-10T07:18:33.335Z,-6.07
2023-01-10T07:21:00.109Z,-5.97
2023-01-10T07:23:27.141Z,-5.83
2023-01-10T07:25:54.190Z,-5.65
2023-01-10T07:28:23.489Z,-5.58
2023-01-10T07:30:50.835Z,-5.48
2023-01-10T07:33:17.668Z,-5.27
2023-01-10T07:35:44.877Z,-5.28
2023-01-10T07:38:12.159Z,-5.34
2023-01-10T07:40:39.336Z,-5.21
2023-01-10T07:43:06.392Z,-4.99
2023-01-10T07:45:34.279Z,-4.80
2023-01-10T07:48:02.697Z,-4.73
2023-01-10T07:50:31.570Z,-4.71
2023-01-10T07:52:59.118Z,-4.71
2023-01-10T07:55:27.053Z,-4.77
2023-01-10T07:57:55.766Z,-4.80
2023-01-10T08:00:23.321Z,-4.59
2023-01-10T08:02:53.390Z,-4.44
2023-01-10T08:05:21.485Z,-4.21
2023-01-10T08:07:49.408Z,-4.05
2023-01-10T08:10:16.377Z,-4.17
2023-01-10T08:12:44.113Z,-4.17
2023-01-10T08:15:11.636Z,-3.99
2023-01-10T08:17:38.676Z,-3.91
2023-01-10T08:20:11.393Z,-4.06
2023-01-10T08:22:38.567Z,-4.08
2023-01-10T08:25:05.695Z,-4.17
2023-01-10T08:27:32.852Z,-4.11
2023-01-10T08:29:59.728Z,-4.30
2023-01-10T08:32:26.714Z,-4.28
2023-01-10T08:34:55.791Z,-4.15
2023-01-10T08:37:22.853Z,-4.14
2023-01-10T08:39:49.676Z,-4.06
2023-01-10T08:42:18.452Z,-4.09
2023-01-10T08:44:45.322Z,-4.15
2023-01-10T08:47:12.246Z,-4.18
2023-01-10T08:49:39.515Z,-4.17
2023-01-10T08:52:06.756Z,-4.11
2023-01-10T08:54:33.838Z,-4.01
2023-01-10T08:57:01.676Z,-4.14
2023-01-10T08:59:29.024Z,-4.17
2023-01-10T09:01:58.046Z,-4.07
2023-01-10T09:04:28.027Z,-3.83
2023-01-10T09:06:55.248Z,-3.59
2023-01-10T09:09:22.394Z,-3.40
2023-01-10T09:11:51.879Z,-3.35
2023-01-10T09:14:18.876Z,-3.26
2023-01-10T09:24:59.423Z,-3.23
2023-01-10T09:27:26.542Z,-3.06
2023-01-10T09:29:53.592Z,-2.82
2023-01-10T09:32:20.998Z,-2.81
2023-01-10T09:34:48.204Z,-2.81
2023-01-10T09:37:15.870Z,-2.82
2023-01-10T09:39:43.419Z,-2.95
2023-01-10T09:42:10.874Z,-2.93
2023-01-10T09:45:03.019Z,-2.85
2023-01-10T09:47:53.960Z,-2.71
2023-01-10T09:50:39.604Z,-2.51
2023-01-10T09:53:13.794Z,-2.54
2023-01-10T09:55:40.703Z,-2.55
2023-01-10T09:58:13.235Z,-2.63
2023-01-10T10:00:54.442Z,-2.62
2023-01-10T10:03:27.844Z,-2.51
2023-01-10T10:06:03.623Z,-2.29
2023-01-10T10:08:34.912Z,-2.05
2023-01-10T10:11:26.329Z,-1.74
2023-01-10T10:22:12.825Z,-1.52
2023-01-10T10:25:17.360Z,-1.54
2023-01-10T10:28:31.397Z,-1.36
2023-01-10T10:31:34.560Z,-1.14
2023-01-10T10:34:22.754Z,-1.42
2023-01-10T10:36:58.823Z,-1.65
2023-01-10T10:39:35.928Z,-1.69
2023-01-10T10:42:03.727Z,-1.68
2023-01-10T10:44:40.172Z,-1.60
2023-01-10T10:47:19.885Z,-1.55
2023-01-10T10:49:55.065Z,-1.66
2023-01-10T10:52:34.303Z,-1.61
2023-01-10T10:55:01.332Z,-1.55
2023-01-10T10:57:29.879Z,-1.58
2023-01-10T10:59:57.594Z,-1.50
2023-01-10T11:02:28.800Z,-1.24
2023-01-10T11:04:59.400Z,-1.00
2023-01-10T11:07:29.279Z,-0.82
2023-01-10T11:10:08.165Z,-0.65
2023-01-10T11:12:36.472Z,-0.62
2023-01-10T11:15:03.931Z,-0.60
2023-01-10T11:17:31.691Z,-0.67
2023-01-10T11:20:01.094Z,-0.60
2023-01-10T11:22:39.382Z,-0.36
2023-01-10T11:25:18.737Z,-0.09
2023-01-10T11:27:50.803Z,0.01
2023-01-10T11:30:28.928Z,0.06
2023-01-10T11:32:57.111Z,0.09
2023-01-10T11:35:32.834Z,0.24
2023-01-10T11:38:15.552Z,0.24
2023-01-10T11:40:59.796Z,0.11
2023-01-10T11:43:31.779Z,0.24
2023-01-10T11:46:06.415Z,0.28
2023-01-10T11:49:08.845Z,0.16
2023-01-10T11:51:37.251Z,0.04
2023-01-10T11:54:13.793Z,-0.04
2023-01-10T11:56:42.788Z,-0.10
2023-01-10T11:59:12.131Z,-0.06
2023-01-10T12:01:41.413Z,-0.04
2023-01-10T12:04:15.984Z,-0.15
2023-01-10T12:07:09.398Z,-0.15
2023-01-10T12:09:43.328Z,-0.06
2023-01-10T12:12:21.131Z,0.00
2023-01-10T12:14:50.353Z,0.13
2023-01-10T12:17:34.760Z,-0.00
2023-01-10T12:20:02.621Z,-0.13
2023-01-10T12:22:35.315Z,-0.16
2023-01-10T12:25:05.807Z,-0.25
2023-01-10T12:27:32.777Z,-0.25
2023-01-10T12:30:12.572Z,-0.11
2023-01-10T12:32:45.984Z,0.01
2023-01-10T12:35:24.661Z,0.04
2023-01-10T12:37:55.775Z,-0.15
2023-01-10T12:40:35.429Z,-0.19
2023-01-10T12:43:24.723Z,-0.20
2023-01-10T12:45:53.747Z,-0.20
2023-01-10T12:48:30.363Z,-0.24
2023-01-10T12:51:01.231Z,-0.52
2023-01-10T12:53:43.913Z,-0.65
2023-01-10T12:56:14.441Z,-0.86
2023-01-10T12:58:47.423Z,-0.97
2023-01-10T13:01:16.781Z,-1.02
2023-01-10T13:03:44.804Z,-0.96
2023-01-10T13:06:31.651Z,-0.98
2023-01-10T13:08:59.804Z,-1.13
2023-01-10T13:11:29.697Z,-1.48
2023-01-10T13:14:01.270Z,-1.66
2023-01-10T13:16:50.624Z,-1.70
2023-01-10T13:19:21.047Z,-1.80
2023-01-10T13:21:48.100Z,-1.96
2023-01-10T13:24:15.343Z,-2.18
2023-01-10T13:26:52.554Z,-2.34
2023-01-10T13:29:21.945Z,-2.42
2023-01-10T13:31:50.580Z,-2.56
2023-01-10T13:34:17.902Z,-2.57
2023-01-10T13:36:56.606Z,-2.63
2023-01-10T13:39:40.669Z,-2.88
2023-01-10T13:42:26.628Z,-3.16
2023-01-10T13:45:09.859Z,-3.35
2023-01-10T13:47:41.027Z,-3.59
2023-01-10T13:50:35.667Z,-3.93
2023-01-10T13:53:12.177Z,-4.17
2023-01-10T13:55:38.973Z,-4.30
2023-01-10T13:58:09.023Z,-4.40
2023-01-10T14:00:59.153Z,-4.54
2023-01-10T14:03:50.281Z,-4.67
2023-01-10T14:06:30.968Z,-4.88
2023-01-10T14:09:01.030Z,-4.90
2023-01-10T14:11:43.520Z,-4.97
2023-01-10T14:14:22.814Z,-5.16
2023-01-10T14:17:17.336Z,-5.30
2023-01-10T14:19:45.427Z,-5.47
2023-01-10T14:22:35.716Z,-5.58
2023-01-10T14:25:17.301Z,-5.65
2023-01-10T14:27:50.369Z,-5.62
2023-01-10T14:30:20.648Z,-5.62
2023-01-10T14:32:52.364Z,-5.50
2023-01-10T14:35:21.667Z,-5.48
2023-01-10T14:37:52.841Z,-5.44
2023-01-10T14:40:34.190Z,-5.35
2023-01-10T14:43:03.595Z,-5.28
2023-01-10T14:45:51.578Z,-5.42
2023-01-10T14:48:29.330Z,-5.53
2023-01-10T14:51:20.564Z,-5.59
2023-01-10T14:54:01.583Z,-5.56
2023-01-10T14:56:35.812Z,-5.57
2023-01-10T14:59:33.807Z,-5.57
2023-01-10T15:02:02.242Z,-5.63
2023-01-10T15:04:32.390Z,-5.66
2023-01-10T15:07:10.105Z,-5.77
2023-01-10T15:09:37.500Z,-5.94
2023-01-10T15:12:07.701Z,-5.99
2023-01-10T15:14:35.810Z,-6.00
2023-01-10T15:17:05.115Z,-6.08
2023-01-10T15:19:34.853Z,-6.16
2023-01-10T15:22:03.611Z,-6.08
2023-01-10T15:24:37.066Z,-6.07
2023-01-10T15:27:13.411Z,-6.14
2023-01-10T15:29:44.507Z,-6.10
2023-01-10T15:32:18.976Z,-6.28
2023-01-10T15:34:48.894Z,-6.39
2023-01-10T15:37:20.237Z,-6.38
2023-01-10T15:39:48.004Z,-6.41
2023-01-10T15:42:15.164Z,-6.50
2023-01-10T15:44:44.662Z,-6.62
2023-01-10T15:47:37.504Z,-6.67
2023-01-10T15:50:26.674Z,-6.68
2023-01-10T15:52:57.678Z,-6.72
2023-01-10T15:55:38.997Z,-6.83
2023-01-10T15:58:34.684Z,-6.84
2023-01-10T16:01:01.791Z,-6.86
2023-01-10T16:03:36.390Z,-6.94
2023-01-10T16:06:13.492Z,-7.01
2023-01-10T16:08:48.487Z,-7.07
2023-01-10T16:11:51.088Z,-7.05
2023-01-10T16:14:18.239Z,-7.09
2023-01-10T16:16:45.284Z,-7.24
2023-01-10T16:19:14.847Z,-7.31
2023-01-10T16:21:46.656Z,-7.32
2023-01-10T16:24:19.204Z,-7.31
2023-01-10T16:26:47.631Z,-7.23
2023-01-10T16:29:14.553Z,-7.30
2023-01-10T16:31:41.717Z,-7.39
2023-01-10T16:34:08.772Z,-7.47
2023-01-10T16:36:36.495Z,-7.53
2023-01-10T16:39:08.203Z,-7.56
2023-01-10T16:41:53.663Z,-7.61
2023-01-10T16:44:20.698Z,-7.48
2023-01-10T16:46:52.862Z,-7.54
2023-01-10T16:49:20.627Z,-7.74
2023-01-10T16:51:48.181Z,-7.91
2023-01-10T16:54:17.174Z,-7.94
2023-01-10T16:56:44.941Z,-7.99
2023-01-10T16:59:17.428Z,-7.99
2023-01-10T17:01:51.843Z,-8.03
2023-01-10T17:04:23.995Z,-8.02
2023-01-10T17:06:51.196Z,-8.04
2023-01-10T17:09:35.091Z,-8.10
2023-01-10T17:12:11.957Z,-8.22
2023-01-10T17:14:38.911Z,-8.39
2023-01-10T17:17:06.001Z,-8.53
2023-01-10T17:19:33.318Z,-8.55
2023-01-10T17:22:00.292Z,-8.58
2023-01-10T17:24:30.172Z,-8.54
2023-01-10T17:26:57.360Z,-8.53
2023-01-10T17:29:24.577Z,-8.64
2023-01-10T17:31:51.568Z,-8.80
2023-01-10T17:34:24.721Z,-8.85
2023-01-10T17:36:51.769Z,-8.83
2023-01-10T17:39:18.810Z,-8.78
2023-01-10T17:41:45.894Z,-8.75
2023-01-10T17:44:18.021Z,-8.77
2023-01-10T17:46:45.271Z,-8.77
2023-01-10T17:49:13.422Z,-8.80
2023-01-10T17:51:40.704Z,-8.79
2023-01-10T18:01:55.089Z,-8.96
2023-01-10T18:04:22.378Z,-9.05
2023-01-10T18:06:52.300Z,-9.01
2023-01-10T18:09:24.744Z,-9.08
2023-01-10T18:11:51.795Z,-9.33
2023-01-10T18:14:37.218Z,-9.65
2023-01-10T18:17:06.222Z,-9.69
2023-01-10T18:19:34.742Z,-9.82
2023-01-10T18:22:22.783Z,-9.84
2023-01-10T18:24:53.804Z,-9.65
2023-01-10T18:27:25.082Z,-9.59
2023-01-10T18:29:52.383Z,-9.56
2023-01-10T18:32:20.497Z,-9.51
2023-01-10T18:34:47.752Z,-9.50
2023-01-10T18:37:15.765Z,-9.53
2023-01-10T18:39:47.308Z,-9.59
2023-01-10T18:42:14.495Z,-9.71
2023-01-10T18:44:41.511Z,-9.81
2023-01-10T18:47:13.946Z,-9.81
2023-01-10T18:49:41.606Z,-9.67
2023-01-10T18:52:08.761Z,-9.73
2023-01-10T18:54:35.819Z,-9.85
2023-01-10T18:57:08.280Z,-10.00
2023-01-10T18:59:35.732Z,-10.04
2023-01-10T19:02:02.675Z,-10.16
2023-01-10T19:04:35.058Z,-10.23
2023-01-10T19:07:02.117Z,-10.24
2023-01-10T19:09:29.247Z,-10.22
2023-01-10T19:11:56.401Z,-10.34
2023-01-10T19:14:23.448Z,-10.41
2023-01-10T19:16:50.503Z,-10.35
2023-01-10T19:19:23.738Z,-10.31
2023-01-10T19:21:50.835Z,-10.29
2023-01-10T19:24:21.052Z,-10.26
2023-01-10T19:26:48.407Z,-10.30
2023-01-10T19:29:15.556Z,-10.42
2023-01-10T19:31:43.591Z,-10.44
2023-01-10T19:34:12.213Z,-10.43
2023-01-10T19:36:42.231Z,-10.37
2023-01-10T19:39:09.899Z,-10.35
2023-01-10T19:41:37.250Z,-10.23
2023-01-10T19:44:06.772Z,-10.20
2023-01-10T19:46:37.049Z,-10.17
2023-01-10T19:49:13.123Z,-10.33
2023-01-10T19:51:40.601Z,-10.43
2023-01-10T19:54:08.426Z,-10.48
2023-01-10T19:56:35.661Z,-10.56
2023-01-10T19:59:03.165Z,-10.47
2023-01-10T20:01:31.612Z,-10.50
2023-01-10T20:04:02.127Z,-10.52
2023-01-10T20:06:31.092Z,-10.45
2023-01-10T20:08:58.533Z,-10.30
2023-01-10T20:11:26.490Z,-10.33
2023-01-10T20:13:54.712Z,-10.39
2023-01-10T20:16:22.835Z,-10.32
2023-01-10T20:18:50.608Z,-10.42
2023-01-10T20:21:18.181Z,-10.47
2023-01-10T20:23:50.638Z,-10.48
2023-01-10T20:26:22.605Z,-10.46
2023-01-10T20:28:50.888Z,-10.38
2023-01-10T20:31:22.683Z,-10.28
2023-01-10T20:33:55.129Z,-10.24
2023-01-10T20:36:23.469Z,-10.33
2023-01-10T20:38:50.818Z,-10.26
2023-01-10T20:41:31.043Z,-10.17
2023-01-10T20:43:58.124Z,-10.19
2023-01-10T20:46:27.203Z,-10.28
2023-01-10T20:48:55.519Z,-10.48
2023-01-10T20:51:24.513Z,-10.43
2023-01-10T20:53:56.985Z,-10.37
2023-01-10T20:56:25.870Z,-10.35
2023-01-10T20:58:53.335Z,-10.32
2023-01-10T21:01:33.107Z,-10.31
2023-01-10T21:04:01.272Z,-10.33
2023-01-10T21:06:28.780Z,-10.36
2023-01-10T21:08:56.598Z,-10.36
2023-01-10T21:11:23.623Z,-10.31
2023-01-10T21:13:50.980Z,-10.25
2023-01-10T21:16:20.214Z,-10.40
2023-01-10T21:18:47.880Z,-10.53
2023-01-10T21:21:16.632Z,-10.65
2023-01-10T21:23:43.975Z,-10.77
2023-01-10T21:26:16.550Z,-10.88
2023-01-10T21:28:47.966Z,-10.92
2023-01-10T21:31:16.827Z,-10.89
2023-01-10T21:33:53.562Z,-10.87
2023-01-10T21:36:20.610Z,-10.77
2023-01-10T21:38:48.101Z,-10.65
2023-01-10T21:41:44.626Z,-10.64
2023-01-10T21:44:11.862Z,-10.74
2023-01-10T21:46:39.161Z,-10.72
2023-01-10T21:49:06.363Z,-10.63
2023-01-10T21:51:33.545Z,-10.73
2023-01-10T21:54:05.678Z,-10.78
2023-01-10T21:56:33.037Z,-10.74
2023-01-10T21:59:00.184Z,-10.79
2023-01-10T22:01:32.681Z,-10.82
2023-01-10T22:04:04.958Z,-10.77
2023-01-10T22:06:32.250Z,-10.79
2023-01-10T22:08:59.433Z,-10.80
2023-01-10T22:11:31.702Z,-10.75
2023-01-10T22:13:58.953Z,-10.75
2023-01-10T22:16:26.533Z,-10.80
2023-01-10T22:18:53.668Z,-10.90
2023-01-10T22:21:21.789Z,-10.86
2023-01-10T22:23:49.092Z,-10.91
2023-01-10T22:26:16.333Z,-11.00
2023-01-10T22:28:44.417Z,-11.06
2023-01-10T22:31:11.605Z,-11.03
2023-01-10T22:33:38.814Z,-11.06
2023-01-10T22:36:13.658Z,-11.09
2023-01-10T22:38:41.947Z,-11.06
2023-01-10T22:41:10.195Z,-11.09
2023-01-10T22:43:37.450Z,-11.16
2023-01-10T22:46:05.013Z,-11.11
2023-01-10T22:48:32.363Z,-11.09
2023-01-10T22:51:01.054Z,-11.14
2023-01-10T22:53:28.583Z,-11.17
2023-01-10T22:55:55.620Z,-11.20
2023-01-10T22:58:22.725Z,-11.27
2023-01-10T23:00:50.057Z,-11.32
2023-01-10T23:03:17.115Z,-11.35
2023-01-10T23:05:49.155Z,-11.34
2023-01-10T23:08:16.168Z,-11.33
2023-01-10T23:10:43.870Z,-11.37
2023-01-10T23:13:10.924Z,-11.38
2023-01-10T23:15:38.166Z,-11.45
2023-01-10T23:18:05.210Z,-11.38
2023-01-10T23:20:33.824Z,-11.36
2023-01-10T23:23:00.959Z,-11.39
2023-01-10T23:25:27.927Z,-11.43
2023-01-10T23:27:54.936Z,-11.50
2023-01-10T23:30:22.809Z,-11.48
2023-01-10T23:32:51.396Z,-11.47
2023-01-10T23:35:18.433Z,-11.40
2023-01-10T23:37:45.500Z,-11.28
2023-01-10T23:40:13.165Z,-11.23
2023-01-10T23:42:40.116Z,-11.27
2023-01-10T23:45:13.192Z,-11.28
2023-01-10T23:47:40.120Z,-11.47
2023-01-10T23:50:07.999Z,-11.58
2023-01-10T23:52:35.140Z,-11.53
2023-01-10T23:55:02.106Z,-11.49
2023-01-10T23:57:29.129Z,-11.49
